sensor_id;sensor_type;location;lat;lon;timestamp;P1;durP1;ratioP1;P2;durP2;ratioP2
43664;SDS011;29263;48.172;11.484;2022-11-21T00:00:54;0.40;;;0.33;;
43664;SDS011;29263;48.172;11.484;2022-11-21T00:03:20;0.73;;;0.40;;
43664;SDS011;29263;48.172;11.484;2022-11-21T00:05:48;0.40;;;0.40;;
43664;SDS011;29263;48.172;11.484;2022-11-21T00:08:14;0.37;;;0.30;;
43664;SDS011;29263;48.172;11.484;2022-11-21T00:10:42;0.40;;;0.40;;
43664;SDS011;29263;48.172;11.484;2022-11-21T00:13:26;0.57;;;0.30;;
43664;SDS011;29263;48.172;11.484;2022-11-21T00:15:52;0.93;;;0.30;;
43664;SDS011;29263;48.172;11.484;2022-11-21T00:18:18;0.40;;;0.20;;
43664;SDS011;29263;48.172;11.484;2022-11-21T00:20:43;0.20;;;0.20;;
43664;SDS011;29263;48.172;11.484;2022-11-21T00:23:09;1.57;;;0.30;;
43664;SDS011;29263;48.172;11.484;2022-11-21T00:25:35;0.77;;;0.30;;
43664;SDS011;29263;48.172;11.484;2022-11-21T00:28:02;0.50;;;0.40;;
43664;SDS011;29263;48.172;11.484;2022-11-21T00:30:28;0.30;;;0.30;;
43664;SDS011;29263;48.172;11.484;2022-11-21T00:32:54;0.27;;;0.20;;
43664;SDS011;29263;48.172;11.484;2022-11-21T00:35:19;0.30;;;0.30;;
43664;SDS011;29263;48.172;11.484;2022-11-21T00:37:45;1.93;;;0.30;;
43664;SDS011;29263;48.172;11.484;2022-11-21T00:40:12;0.93;;;0.30;;
43664;SDS011;29263;48.172;11.484;2022-11-21T00:42:38;0.20;;;0.20;;
43664;SDS011;29263;48.172;11.484;2022-11-21T00:45:04;0.40;;;0.30;;
43664;SDS011;29263;48.172;11.484;2022-11-21T00:47:30;0.20;;;0.20;;
43664;SDS011;29263;48.172;11.484;2022-11-21T00:49:55;0.30;;;0.30;;
43664;SDS011;29263;48.172;11.484;2022-11-21T00:52:21;1.20;;;0.40;;
43664;SDS011;29263;48.172;11.484;2022-11-21T00:54:47;0.47;;;0.30;;
43664;SDS011;29263;48.172;11.484;2022-11-21T00:57:12;0.43;;;0.30;;
43664;SDS011;29263;48.172;11.484;2022-11-21T00:59:38;0.50;;;0.40;;
43664;SDS011;29263;48.172;11.484;2022-11-21T01:02:03;1.90;;;0.20;;
43664;SDS011;29263;48.172;11.484;2022-11-21T01:04:32;0.67;;;0.50;;
43664;SDS011;29263;48.172;11.484;2022-11-21T01:06:59;0.22;;;0.22;;
43664;SDS011;29263;48.172;11.484;2022-11-21T01:09:24;0.93;;;0.40;;
43664;SDS011;29263;48.172;11.484;2022-11-21T01:11:53;0.70;;;0.20;;
43664;SDS011;29263;48.172;11.484;2022-11-21T01:14:19;0.33;;;0.30;;
43664;SDS011;29263;48.172;11.484;2022-11-21T01:16:45;0.53;;;0.23;;
43664;SDS011;29263;48.172;11.484;2022-11-21T01:19:11;0.63;;;0.30;;
43664;SDS011;29263;48.172;11.484;2022-11-21T01:21:36;0.27;;;0.27;;
43664;SDS011;29263;48.172;11.484;2022-11-21T01:24:02;0.50;;;0.40;;
43664;SDS011;29263;48.172;11.484;2022-11-21T01:26:28;0.40;;;0.30;;
43664;SDS011;29263;48.172;11.484;2022-11-21T01:28:56;0.87;;;0.50;;
43664;SDS011;29263;48.172;11.484;2022-11-21T01:31:23;0.37;;;0.37;;
43664;SDS011;29263;48.172;11.484;2022-11-21T01:33:50;0.80;;;0.60;;
43664;SDS011;29263;48.172;11.484;2022-11-21T01:36:23;0.47;;;0.40;;
43664;SDS011;29263;48.172;11.484;2022-11-21T01:38:51;0.50;;;0.33;;
43664;SDS011;29263;48.172;11.484;2022-11-21T01:41:20;0.57;;;0.57;;
43664;SDS011;29263;48.172;11.484;2022-11-21T01:43:47;1.60;;;0.60;;
43664;SDS011;29263;48.172;11.484;2022-11-21T01:46:14;0.73;;;0.40;;
43664;SDS011;29263;48.172;11.484;2022-11-21T01:51:21;0.67;;;0.50;;
43664;SDS011;29263;48.172;11.484;2022-11-21T01:59:57;0.70;;;0.30;;
43664;SDS011;29263;48.172;11.484;2022-11-21T02:02:27;0.93;;;0.43;;
43664;SDS011;29263;48.172;11.484;2022-11-21T02:04:55;1.47;;;0.67;;
43664;SDS011;29263;48.172;11.484;2022-11-21T02:07:21;1.20;;;0.40;;
43664;SDS011;29263;48.172;11.484;2022-11-21T02:09:50;0.40;;;0.30;;
43664;SDS011;29263;48.172;11.484;2022-11-21T02:12:24;1.13;;;0.40;;
43664;SDS011;29263;48.172;11.484;2022-11-21T02:14:53;0.47;;;0.40;;
43664;SDS011;29263;48.172;11.484;2022-11-21T02:17:20;0.57;;;0.50;;
43664;SDS011;29263;48.172;11.484;2022-11-21T02:19:49;1.40;;;0.40;;
43664;SDS011;29263;48.172;11.484;2022-11-21T02:27:41;1.00;;;0.50;;
43664;SDS011;29263;48.172;11.484;2022-11-21T02:30:07;0.80;;;0.30;;
43664;SDS011;29263;48.172;11.484;2022-11-21T02:32:36;2.23;;;0.40;;
43664;SDS011;29263;48.172;11.484;2022-11-21T02:35:03;0.88;;;0.50;;
43664;SDS011;29263;48.172;11.484;2022-11-21T02:37:29;1.03;;;0.50;;
43664;SDS011;29263;48.172;11.484;2022-11-21T02:39:57;2.07;;;0.50;;
43664;SDS011;29263;48.172;11.484;2022-11-21T02:42:35;1.17;;;0.40;;
43664;SDS011;29263;48.172;11.484;2022-11-21T02:45:18;0.90;;;0.60;;
43664;SDS011;29263;48.172;11.484;2022-11-21T02:47:46;0.70;;;0.40;;
43664;SDS011;29263;48.172;11.484;2022-11-21T02:50:24;1.17;;;0.47;;
43664;SDS011;29263;48.172;11.484;2022-11-21T02:52:52;1.30;;;0.70;;
43664;SDS011;29263;48.172;11.484;2022-11-21T02:55:19;1.73;;;0.50;;
43664;SDS011;29263;48.172;11.484;2022-11-21T02:57:45;0.87;;;0.40;;
43664;SDS011;29263;48.172;11.484;2022-11-21T03:00:11;0.60;;;0.57;;
43664;SDS011;29263;48.172;11.484;2022-11-21T03:02:36;0.90;;;0.40;;
43664;SDS011;29263;48.172;11.484;2022-11-21T03:05:05;2.40;;;0.40;;
43664;SDS011;29263;48.172;11.484;2022-11-21T03:07:32;1.60;;;0.40;;
43664;SDS011;29263;48.172;11.484;2022-11-21T03:10:01;0.83;;;0.40;;
43664;SDS011;29263;48.172;11.484;2022-11-21T03:12:27;1.23;;;0.30;;
43664;SDS011;29263;48.172;11.484;2022-11-21T03:14:52;0.40;;;0.40;;
43664;SDS011;29263;48.172;11.484;2022-11-21T03:17:18;2.50;;;0.50;;
43664;SDS011;29263;48.172;11.484;2022-11-21T03:19:43;1.60;;;0.50;;
43664;SDS011;29263;48.172;11.484;2022-11-21T03:22:09;0.87;;;0.30;;
43664;SDS011;29263;48.172;11.484;2022-11-21T03:24:36;2.10;;;0.40;;
43664;SDS011;29263;48.172;11.484;2022-11-21T03:27:01;1.40;;;0.87;;
43664;SDS011;29263;48.172;11.484;2022-11-21T03:29:27;3.07;;;0.60;;
43664;SDS011;29263;48.172;11.484;2022-11-21T03:31:53;1.30;;;0.30;;
43664;SDS011;29263;48.172;11.484;2022-11-21T03:34:18;0.90;;;0.33;;
43664;SDS011;29263;48.172;11.484;2022-11-21T03:36:44;0.40;;;0.30;;
43664;SDS011;29263;48.172;11.484;2022-11-21T03:39:09;1.73;;;0.50;;
43664;SDS011;29263;48.172;11.484;2022-11-21T03:41:35;3.03;;;0.53;;
43664;SDS011;29263;48.172;11.484;2022-11-21T03:44:02;0.80;;;0.30;;
43664;SDS011;29263;48.172;11.484;2022-11-21T03:46:30;0.80;;;0.40;;
43664;SDS011;29263;48.172;11.484;2022-11-21T03:48:59;0.50;;;0.40;;
43664;SDS011;29263;48.172;11.484;2022-11-21T03:51:25;0.57;;;0.40;;
43664;SDS011;29263;48.172;11.484;2022-11-21T03:53:51;1.57;;;0.50;;
43664;SDS011;29263;48.172;11.484;2022-11-21T03:56:17;0.70;;;0.30;;
43664;SDS011;29263;48.172;11.484;2022-11-21T03:58:43;2.63;;;0.40;;
43664;SDS011;29263;48.172;11.484;2022-11-21T04:01:10;1.60;;;0.30;;
43664;SDS011;29263;48.172;11.484;2022-11-21T04:03:42;0.83;;;0.30;;
43664;SDS011;29263;48.172;11.484;2022-11-21T04:06:09;1.63;;;0.38;;
43664;SDS011;29263;48.172;11.484;2022-11-21T04:08:36;1.30;;;0.30;;
43664;SDS011;29263;48.172;11.484;2022-11-21T04:11:02;0.60;;;0.33;;
43664;SDS011;29263;48.172;11.484;2022-11-21T04:13:28;1.17;;;0.40;;
43664;SDS011;29263;48.172;11.484;2022-11-21T04:15:53;2.13;;;0.40;;
43664;SDS011;29263;48.172;11.484;2022-11-21T04:18:19;1.60;;;0.40;;
43664;SDS011;29263;48.172;11.484;2022-11-21T04:20:45;1.10;;;0.37;;
43664;SDS011;29263;48.172;11.484;2022-11-21T04:23:14;1.15;;;0.40;;
43664;SDS011;29263;48.172;11.484;2022-11-21T04:25:40;3.87;;;0.60;;
43664;SDS011;29263;48.172;11.484;2022-11-21T04:28:06;1.70;;;1.33;;
43664;SDS011;29263;48.172;11.484;2022-11-21T04:30:32;2.23;;;0.60;;
43664;SDS011;29263;48.172;11.484;2022-11-21T04:32:58;3.70;;;0.63;;
43664;SDS011;29263;48.172;11.484;2022-11-21T04:35:24;1.77;;;0.43;;
43664;SDS011;29263;48.172;11.484;2022-11-21T04:37:51;1.20;;;0.40;;
43664;SDS011;29263;48.172;11.484;2022-11-21T04:40:18;1.13;;;0.80;;
43664;SDS011;29263;48.172;11.484;2022-11-21T04:42:44;2.13;;;0.60;;
43664;SDS011;29263;48.172;11.484;2022-11-21T04:45:11;1.13;;;0.40;;
43664;SDS011;29263;48.172;11.484;2022-11-21T04:47:38;2.50;;;0.70;;
43664;SDS011;29263;48.172;11.484;2022-11-21T04:50:06;1.87;;;0.30;;
43664;SDS011;29263;48.172;11.484;2022-11-21T04:52:33;2.77;;;0.60;;
43664;SDS011;29263;48.172;11.484;2022-11-21T04:54:59;4.37;;;0.70;;
43664;SDS011;29263;48.172;11.484;2022-11-21T04:57:26;2.10;;;0.47;;
43664;SDS011;29263;48.172;11.484;2022-11-21T04:59:53;3.07;;;0.50;;
43664;SDS011;29263;48.172;11.484;2022-11-21T05:02:19;2.07;;;0.40;;
43664;SDS011;29263;48.172;11.484;2022-11-21T05:04:45;2.77;;;1.50;;
43664;SDS011;29263;48.172;11.484;2022-11-21T05:07:11;2.13;;;0.40;;
43664;SDS011;29263;48.172;11.484;2022-11-21T05:09:36;1.60;;;0.93;;
43664;SDS011;29263;48.172;11.484;2022-11-21T05:12:02;0.57;;;0.30;;
43664;SDS011;29263;48.172;11.484;2022-11-21T05:14:47;2.00;;;0.40;;
43664;SDS011;29263;48.172;11.484;2022-11-21T05:17:12;2.67;;;0.40;;
43664;SDS011;29263;48.172;11.484;2022-11-21T05:19:38;2.33;;;0.30;;
43664;SDS011;29263;48.172;11.484;2022-11-21T05:22:04;1.87;;;0.30;;
43664;SDS011;29263;48.172;11.484;2022-11-21T05:24:29;1.93;;;0.50;;
43664;SDS011;29263;48.172;11.484;2022-11-21T05:26:55;2.00;;;0.47;;
43664;SDS011;29263;48.172;11.484;2022-11-21T05:29:20;0.30;;;0.10;;
43664;SDS011;29263;48.172;11.484;2022-11-21T05:31:46;1.60;;;0.30;;
43664;SDS011;29263;48.172;11.484;2022-11-21T05:34:12;3.17;;;0.30;;
43664;SDS011;29263;48.172;11.484;2022-11-21T05:36:37;1.60;;;0.23;;
43664;SDS011;29263;48.172;11.484;2022-11-21T05:39:03;2.97;;;0.50;;
43664;SDS011;29263;48.172;11.484;2022-11-21T05:41:29;0.63;;;0.20;;
43664;SDS011;29263;48.172;11.484;2022-11-21T05:43:54;0.77;;;0.40;;
43664;SDS011;29263;48.172;11.484;2022-11-21T05:46:21;1.90;;;0.30;;
43664;SDS011;29263;48.172;11.484;2022-11-21T05:48:49;0.85;;;0.40;;
43664;SDS011;29263;48.172;11.484;2022-11-21T05:51:16;3.00;;;0.60;;
43664;SDS011;29263;48.172;11.484;2022-11-21T05:53:42;3.63;;;0.30;;
43664;SDS011;29263;48.172;11.484;2022-11-21T05:56:09;0.97;;;0.30;;
43664;SDS011;29263;48.172;11.484;2022-11-21T05:58:36;2.30;;;0.50;;
43664;SDS011;29263;48.172;11.484;2022-11-21T06:01:02;1.97;;;0.70;;
43664;SDS011;29263;48.172;11.484;2022-11-21T06:03:31;4.23;;;1.57;;
43664;SDS011;29263;48.172;11.484;2022-11-21T06:05:59;1.80;;;0.65;;
43664;SDS011;29263;48.172;11.484;2022-11-21T06:08:26;2.70;;;0.87;;
43664;SDS011;29263;48.172;11.484;2022-11-21T06:10:52;1.40;;;0.63;;
43664;SDS011;29263;48.172;11.484;2022-11-21T06:13:18;2.77;;;0.60;;
43664;SDS011;29263;48.172;11.484;2022-11-21T06:16:20;3.87;;;1.00;;
43664;SDS011;29263;48.172;11.484;2022-11-21T06:18:43;1.87;;;0.63;;
43664;SDS011;29263;48.172;11.484;2022-11-21T06:23:42;1.53;;;0.60;;
43664;SDS011;29263;48.172;11.484;2022-11-21T06:26:12;2.20;;;0.73;;
43664;SDS011;29263;48.172;11.484;2022-11-21T06:28:39;3.83;;;0.70;;
43664;SDS011;29263;48.172;11.484;2022-11-21T06:31:10;0.53;;;0.40;;
43664;SDS011;29263;48.172;11.484;2022-11-21T06:33:40;2.13;;;0.90;;
43664;SDS011;29263;48.172;11.484;2022-11-21T06:36:07;0.90;;;0.57;;
43664;SDS011;29263;48.172;11.484;2022-11-21T06:38:40;1.83;;;0.77;;
43664;SDS011;29263;48.172;11.484;2022-11-21T06:41:16;1.67;;;0.80;;
43664;SDS011;29263;48.172;11.484;2022-11-21T06:43:43;1.30;;;0.43;;
43664;SDS011;29263;48.172;11.484;2022-11-21T06:46:10;1.87;;;0.57;;
43664;SDS011;29263;48.172;11.484;2022-11-21T06:48:36;1.17;;;0.80;;
43664;SDS011;29263;48.172;11.484;2022-11-21T06:51:03;0.70;;;0.50;;
43664;SDS011;29263;48.172;11.484;2022-11-21T06:53:56;0.97;;;0.40;;
43664;SDS011;29263;48.172;11.484;2022-11-21T06:56:23;0.83;;;0.50;;
43664;SDS011;29263;48.172;11.484;2022-11-21T06:58:50;1.47;;;0.30;;
43664;SDS011;29263;48.172;11.484;2022-11-21T07:01:15;1.37;;;0.50;;
43664;SDS011;29263;48.172;11.484;2022-11-21T07:03:41;1.17;;;0.70;;
43664;SDS011;29263;48.172;11.484;2022-11-21T07:06:07;0.87;;;0.50;;
43664;SDS011;29263;48.172;11.484;2022-11-21T07:08:33;1.60;;;0.70;;
43664;SDS011;29263;48.172;11.484;2022-11-21T07:11:00;1.70;;;0.50;;
43664;SDS011;29263;48.172;11.484;2022-11-21T07:13:31;1.07;;;0.40;;
43664;SDS011;29263;48.172;11.484;2022-11-21T07:16:03;2.43;;;0.53;;
43664;SDS011;29263;48.172;11.484;2022-11-21T07:18:31;2.43;;;0.50;;
43664;SDS011;29263;48.172;11.484;2022-11-21T07:21:00;0.47;;;0.47;;
43664;SDS011;29263;48.172;11.484;2022-11-21T07:23:29;0.60;;;0.50;;
43664;SDS011;29263;48.172;11.484;2022-11-21T07:25:58;0.73;;;0.50;;
43664;SDS011;29263;48.172;11.484;2022-11-21T07:28:26;2.83;;;0.40;;
43664;SDS011;29263;48.172;11.484;2022-11-21T07:30:54;0.83;;;0.50;;
43664;SDS011;29263;48.172;11.484;2022-11-21T07:33:24;0.90;;;0.40;;
43664;SDS011;29263;48.172;11.484;2022-11-21T07:35:50;0.87;;;0.50;;
43664;SDS011;29263;48.172;11.484;2022-11-21T07:38:16;0.63;;;0.40;;
43664;SDS011;29263;48.172;11.484;2022-11-21T07:40:42;0.40;;;0.40;;
43664;SDS011;29263;48.172;11.484;2022-11-21T07:43:08;1.03;;;0.40;;
43664;SDS011;29263;48.172;11.484;2022-11-21T07:45:35;1.10;;;0.60;;
43664;SDS011;29263;48.172;11.484;2022-11-21T07:48:01;1.10;;;0.50;;
43664;SDS011;29263;48.172;11.484;2022-11-21T07:50:30;0.70;;;0.30;;
43664;SDS011;29263;48.172;11.484;2022-11-21T07:52:59;0.20;;;0.20;;
43664;SDS011;29263;48.172;11.484;2022-11-21T07:55:27;1.00;;;0.30;;
43664;SDS011;29263;48.172;11.484;2022-11-21T07:57:59;0.40;;;0.30;;
43664;SDS011;29263;48.172;11.484;2022-11-21T08:00:28;0.90;;;0.40;;
43664;SDS011;29263;48.172;11.484;2022-11-21T08:02:55;1.57;;;0.60;;
43664;SDS011;29263;48.172;11.484;2022-11-21T08:05:21;0.57;;;0.20;;
43664;SDS011;29263;48.172;11.484;2022-11-21T08:07:47;0.77;;;0.30;;
43664;SDS011;29263;48.172;11.484;2022-11-21T08:10:13;0.60;;;0.20;;
43664;SDS011;29263;48.172;11.484;2022-11-21T08:12:40;0.73;;;0.20;;
43664;SDS011;29263;48.172;11.484;2022-11-21T08:15:05;1.30;;;0.50;;
43664;SDS011;29263;48.172;11.484;2022-11-21T08:17:32;1.07;;;0.40;;
43664;SDS011;29263;48.172;11.484;2022-11-21T08:19:58;1.50;;;0.40;;
43664;SDS011;29263;48.172;11.484;2022-11-21T08:22:25;0.90;;;0.50;;
43664;SDS011;29263;48.172;11.484;2022-11-21T08:24:51;2.77;;;0.57;;
43664;SDS011;29263;48.172;11.484;2022-11-21T08:27:20;1.20;;;0.33;;
43664;SDS011;29263;48.172;11.484;2022-11-21T08:29:46;0.87;;;0.40;;
43664;SDS011;29263;48.172;11.484;2022-11-21T08:32:12;0.93;;;0.57;;
43664;SDS011;29263;48.172;11.484;2022-11-21T08:34:38;0.80;;;0.23;;
43664;SDS011;29263;48.172;11.484;2022-11-21T08:37:04;1.17;;;0.40;;
43664;SDS011;29263;48.172;11.484;2022-11-21T08:39:30;0.20;;;0.20;;
43664;SDS011;29263;48.172;11.484;2022-11-21T08:41:56;0.77;;;0.37;;
43664;SDS011;29263;48.172;11.484;2022-11-21T08:44:29;0.47;;;0.30;;
43664;SDS011;29263;48.172;11.484;2022-11-21T08:46:58;0.60;;;0.30;;
43664;SDS011;29263;48.172;11.484;2022-11-21T08:49:25;0.80;;;0.40;;
43664;SDS011;29263;48.172;11.484;2022-11-21T08:51:51;0.30;;;0.20;;
43664;SDS011;29263;48.172;11.484;2022-11-21T08:54:17;1.33;;;0.30;;
43664;SDS011;29263;48.172;11.484;2022-11-21T08:56:44;0.57;;;0.37;;
43664;SDS011;29263;48.172;11.484;2022-11-21T08:59:10;0.67;;;0.30;;
43664;SDS011;29263;48.172;11.484;2022-11-21T09:01:36;2.10;;;0.50;;
43664;SDS011;29263;48.172;11.484;2022-11-21T09:04:02;0.97;;;0.30;;
43664;SDS011;29263;48.172;11.484;2022-11-21T09:06:28;1.03;;;0.40;;
43664;SDS011;29263;48.172;11.484;2022-11-21T09:08:54;2.50;;;0.47;;
43664;SDS011;29263;48.172;11.484;2022-11-21T09:11:20;2.27;;;0.30;;
43664;SDS011;29263;48.172;11.484;2022-11-21T09:13:45;0.90;;;0.60;;
43664;SDS011;29263;48.172;11.484;2022-11-21T09:16:31;2.73;;;0.40;;
43664;SDS011;29263;48.172;11.484;2022-11-21T09:19:15;1.40;;;0.30;;
43664;SDS011;29263;48.172;11.484;2022-11-21T09:21:41;1.80;;;0.40;;
43664;SDS011;29263;48.172;11.484;2022-11-21T09:24:06;0.77;;;0.40;;
43664;SDS011;29263;48.172;11.484;2022-11-21T09:26:32;0.40;;;0.20;;
43664;SDS011;29263;48.172;11.484;2022-11-21T09:28:57;2.57;;;0.30;;
43664;SDS011;29263;48.172;11.484;2022-11-21T09:31:23;0.70;;;0.30;;
43664;SDS011;29263;48.172;11.484;2022-11-21T09:33:49;1.40;;;0.50;;
43664;SDS011;29263;48.172;11.484;2022-11-21T09:36:14;1.03;;;0.30;;
43664;SDS011;29263;48.172;11.484;2022-11-21T09:38:40;1.70;;;0.50;;
43664;SDS011;29263;48.172;11.484;2022-11-21T09:41:11;3.50;;;0.70;;
43664;SDS011;29263;48.172;11.484;2022-11-21T09:44:16;1.37;;;0.50;;
43664;SDS011;29263;48.172;11.484;2022-11-21T09:46:44;0.70;;;0.40;;
43664;SDS011;29263;48.172;11.484;2022-11-21T09:49:11;2.17;;;0.55;;
43664;SDS011;29263;48.172;11.484;2022-11-21T09:51:38;1.00;;;0.40;;
43664;SDS011;29263;48.172;11.484;2022-11-21T09:54:12;1.27;;;0.40;;
43664;SDS011;29263;48.172;11.484;2022-11-21T09:56:43;1.83;;;0.67;;
43664;SDS011;29263;48.172;11.484;2022-11-21T10:01:53;1.37;;;0.37;;
43664;SDS011;29263;48.172;11.484;2022-11-21T10:04:18;3.20;;;0.97;;
43664;SDS011;29263;48.172;11.484;2022-11-21T10:09:37;2.63;;;0.50;;
43664;SDS011;29263;48.172;11.484;2022-11-21T10:12:17;2.23;;;0.50;;
43664;SDS011;29263;48.172;11.484;2022-11-21T10:25:46;1.63;;;0.40;;
43664;SDS011;29263;48.172;11.484;2022-11-21T10:28:34;4.17;;;0.70;;
43664;SDS011;29263;48.172;11.484;2022-11-21T10:31:08;1.60;;;0.67;;
43664;SDS011;29263;48.172;11.484;2022-11-21T10:33:36;2.63;;;0.50;;
43664;SDS011;29263;48.172;11.484;2022-11-21T10:38:41;2.13;;;0.53;;
43664;SDS011;29263;48.172;11.484;2022-11-21T10:41:19;1.57;;;0.40;;
43664;SDS011;29263;48.172;11.484;2022-11-21T10:43:59;1.33;;;0.40;;
43664;SDS011;29263;48.172;11.484;2022-11-21T10:47:32;2.50;;;0.60;;
43664;SDS011;29263;48.172;11.484;2022-11-21T10:52:49;3.30;;;0.50;;
43664;SDS011;29263;48.172;11.484;2022-11-21T10:55:22;2.40;;;0.50;;
43664;SDS011;29263;48.172;11.484;2022-11-21T10:57:53;2.07;;;0.40;;
43664;SDS011;29263;48.172;11.484;2022-11-21T11:00:23;4.20;;;0.50;;
43664;SDS011;29263;48.172;11.484;2022-11-21T11:05:31;2.23;;;0.43;;
43664;SDS011;29263;48.172;11.484;2022-11-21T11:10:25;3.77;;;0.80;;
43664;SDS011;29263;48.172;11.484;2022-11-21T11:12:51;1.77;;;0.50;;
43664;SDS011;29263;48.172;11.484;2022-11-21T11:15:35;1.00;;;0.50;;
43664;SDS011;29263;48.172;11.484;2022-11-21T11:18:15;0.90;;;0.40;;
43664;SDS011;29263;48.172;11.484;2022-11-21T11:20:46;4.00;;;0.40;;
43664;SDS011;29263;48.172;11.484;2022-11-21T11:25:59;3.93;;;0.50;;
43664;SDS011;29263;48.172;11.484;2022-11-21T11:28:26;3.90;;;0.57;;
43664;SDS011;29263;48.172;11.484;2022-11-21T11:30:59;2.20;;;0.60;;
43664;SDS011;29263;48.172;11.484;2022-11-21T11:33:29;5.40;;;0.73;;
43664;SDS011;29263;48.172;11.484;2022-11-21T11:36:20;2.97;;;0.50;;
43664;SDS011;29263;48.172;11.484;2022-11-21T11:38:51;0.93;;;0.40;;
43664;SDS011;29263;48.172;11.484;2022-11-21T11:47:40;1.00;;;0.30;;
43664;SDS011;29263;48.172;11.484;2022-11-21T11:53:03;1.70;;;0.30;;
43664;SDS011;29263;48.172;11.484;2022-11-21T11:55:40;0.60;;;0.30;;
43664;SDS011;29263;48.172;11.484;2022-11-21T11:58:16;3.50;;;0.43;;
43664;SDS011;29263;48.172;11.484;2022-11-21T12:00:48;1.17;;;0.40;;
43664;SDS011;29263;48.172;11.484;2022-11-21T12:06:05;6.03;;;0.60;;
43664;SDS011;29263;48.172;11.484;2022-11-21T12:08:37;3.08;;;0.80;;
43664;SDS011;29263;48.172;11.484;2022-11-21T12:17:53;1.73;;;0.40;;
43664;SDS011;29263;48.172;11.484;2022-11-21T12:20:23;1.17;;;0.40;;
43664;SDS011;29263;48.172;11.484;2022-11-21T12:22:54;2.10;;;0.80;;
43664;SDS011;29263;48.172;11.484;2022-11-21T12:25:30;1.87;;;0.40;;
43664;SDS011;29263;48.172;11.484;2022-11-21T12:28:00;2.83;;;0.53;;
43664;SDS011;29263;48.172;11.484;2022-11-21T12:33:21;5.83;;;0.80;;
43664;SDS011;29263;48.172;11.484;2022-11-21T12:38:34;2.50;;;0.50;;
43664;SDS011;29263;48.172;11.484;2022-11-21T12:45:23;1.97;;;0.60;;
43664;SDS011;29263;48.172;11.484;2022-11-21T12:57:15;1.33;;;0.60;;
43664;SDS011;29263;48.172;11.484;2022-11-21T13:02:43;2.20;;;0.50;;
43664;SDS011;29263;48.172;11.484;2022-11-21T13:05:33;2.20;;;0.80;;
43664;SDS011;29263;48.172;11.484;2022-11-21T13:08:03;1.33;;;0.97;;
43664;SDS011;29263;48.172;11.484;2022-11-21T13:10:35;1.33;;;0.57;;
43664;SDS011;29263;48.172;11.484;2022-11-21T13:15:54;1.80;;;0.50;;
43664;SDS011;29263;48.172;11.484;2022-11-21T13:18:26;2.20;;;0.70;;
43664;SDS011;29263;48.172;11.484;2022-11-21T13:20:54;1.60;;;0.57;;
43664;SDS011;29263;48.172;11.484;2022-11-21T13:28:48;0.97;;;0.50;;
43664;SDS011;29263;48.172;11.484;2022-11-21T13:36:55;1.83;;;0.50;;
43664;SDS011;29263;48.172;11.484;2022-11-21T13:39:24;3.13;;;0.70;;
43664;SDS011;29263;48.172;11.484;2022-11-21T13:42:01;2.17;;;0.53;;
43664;SDS011;29263;48.172;11.484;2022-11-21T13:44:46;2.97;;;0.60;;
43664;SDS011;29263;48.172;11.484;2022-11-21T13:52:57;2.87;;;0.60;;
43664;SDS011;29263;48.172;11.484;2022-11-21T14:01:09;2.40;;;0.73;;
43664;SDS011;29263;48.172;11.484;2022-11-21T14:06:37;3.70;;;0.30;;
43664;SDS011;29263;48.172;11.484;2022-11-21T14:09:25;2.20;;;0.40;;
43664;SDS011;29263;48.172;11.484;2022-11-21T14:12:04;3.30;;;0.60;;
43664;SDS011;29263;48.172;11.484;2022-11-21T14:17:53;1.70;;;0.43;;
43664;SDS011;29263;48.172;11.484;2022-11-21T14:23:15;2.13;;;0.43;;
43664;SDS011;29263;48.172;11.484;2022-11-21T14:26:04;3.50;;;0.53;;
43664;SDS011;29263;48.172;11.484;2022-11-21T14:28:34;2.10;;;0.70;;
43664;SDS011;29263;48.172;11.484;2022-11-21T14:31:01;1.23;;;0.70;;
43664;SDS011;29263;48.172;11.484;2022-11-21T14:33:29;4.17;;;0.50;;
43664;SDS011;29263;48.172;11.484;2022-11-21T14:38:25;1.52;;;0.52;;
43664;SDS011;29263;48.172;11.484;2022-11-21T14:46:22;1.23;;;0.93;;
43664;SDS011;29263;48.172;11.484;2022-11-21T14:48:52;3.70;;;0.90;;
43664;SDS011;29263;48.172;11.484;2022-11-21T14:51:21;2.00;;;0.83;;
43664;SDS011;29263;48.172;11.484;2022-11-21T14:53:49;2.07;;;1.20;;
43664;SDS011;29263;48.172;11.484;2022-11-21T14:56:24;3.93;;;1.20;;
43664;SDS011;29263;48.172;11.484;2022-11-21T14:58:52;2.83;;;1.30;;
43664;SDS011;29263;48.172;11.484;2022-11-21T15:01:30;3.93;;;1.13;;
43664;SDS011;29263;48.172;11.484;2022-11-21T15:04:01;4.03;;;1.60;;
43664;SDS011;29263;48.172;11.484;2022-11-21T15:06:29;4.30;;;1.90;;
43664;SDS011;29263;48.172;11.484;2022-11-21T15:08:57;5.47;;;2.63;;
43664;SDS011;29263;48.172;11.484;2022-11-21T15:11:35;5.23;;;2.90;;
43664;SDS011;29263;48.172;11.484;2022-11-21T15:16:31;4.67;;;2.13;;
43664;SDS011;29263;48.172;11.484;2022-11-21T15:18:56;3.40;;;1.63;;
43664;SDS011;29263;48.172;11.484;2022-11-21T15:21:22;3.50;;;1.60;;
43664;SDS011;29263;48.172;11.484;2022-11-21T15:23:48;3.03;;;1.30;;
43664;SDS011;29263;48.172;11.484;2022-11-21T15:28:58;4.73;;;1.20;;
43664;SDS011;29263;48.172;11.484;2022-11-21T15:31:24;2.97;;;0.93;;
43664;SDS011;29263;48.172;11.484;2022-11-21T15:39:11;1.63;;;0.70;;
43664;SDS011;29263;48.172;11.484;2022-11-21T15:41:43;2.63;;;0.30;;
43664;SDS011;29263;48.172;11.484;2022-11-21T15:46:35;0.57;;;0.40;;
43664;SDS011;29263;48.172;11.484;2022-11-21T15:49:06;1.70;;;0.30;;
43664;SDS011;29263;48.172;11.484;2022-11-21T15:54:03;2.00;;;0.47;;
43664;SDS011;29263;48.172;11.484;2022-11-21T15:56:30;3.97;;;0.80;;
43664;SDS011;29263;48.172;11.484;2022-11-21T15:58:56;1.20;;;0.40;;
43664;SDS011;29263;48.172;11.484;2022-11-21T16:01:25;3.00;;;0.70;;
43664;SDS011;29263;48.172;11.484;2022-11-21T16:04:00;2.13;;;0.93;;
43664;SDS011;29263;48.172;11.484;2022-11-21T16:06:27;2.03;;;1.50;;
43664;SDS011;29263;48.172;11.484;2022-11-21T16:08:54;2.90;;;0.87;;
43664;SDS011;29263;48.172;11.484;2022-11-21T16:16:54;1.70;;;0.97;;
43664;SDS011;29263;48.172;11.484;2022-11-21T16:19:19;3.03;;;0.97;;
43664;SDS011;29263;48.172;11.484;2022-11-21T16:21:45;2.17;;;1.37;;
43664;SDS011;29263;48.172;11.484;2022-11-21T16:26:46;3.20;;;1.00;;
43664;SDS011;29263;48.172;11.484;2022-11-21T16:29:13;1.67;;;1.00;;
43664;SDS011;29263;48.172;11.484;2022-11-21T16:31:39;3.60;;;1.00;;
43664;SDS011;29263;48.172;11.484;2022-11-21T16:34:04;2.07;;;0.90;;
43664;SDS011;29263;48.172;11.484;2022-11-21T16:36:40;2.10;;;0.90;;
43664;SDS011;29263;48.172;11.484;2022-11-21T16:39:05;1.63;;;0.90;;
43664;SDS011;29263;48.172;11.484;2022-11-21T16:41:31;3.50;;;0.83;;
43664;SDS011;29263;48.172;11.484;2022-11-21T16:43:56;3.87;;;1.00;;
43664;SDS011;29263;48.172;11.484;2022-11-21T16:46:23;2.33;;;0.70;;
43664;SDS011;29263;48.172;11.484;2022-11-21T16:48:56;4.37;;;1.03;;
43664;SDS011;29263;48.172;11.484;2022-11-21T16:56:34;1.53;;;0.70;;
43664;SDS011;29263;48.172;11.484;2022-11-21T16:59:02;5.10;;;0.93;;
43664;SDS011;29263;48.172;11.484;2022-11-21T17:01:31;2.83;;;0.83;;
43664;SDS011;29263;48.172;11.484;2022-11-21T17:03:57;4.03;;;1.30;;
43664;SDS011;29263;48.172;11.484;2022-11-21T17:06:24;2.50;;;1.00;;
43664;SDS011;29263;48.172;11.484;2022-11-21T17:08:52;7.00;;;1.10;;
43664;SDS011;29263;48.172;11.484;2022-11-21T17:11:18;1.97;;;1.10;;
43664;SDS011;29263;48.172;11.484;2022-11-21T17:13:46;3.67;;;1.00;;
43664;SDS011;29263;48.172;11.484;2022-11-21T17:16:14;1.53;;;0.73;;
43664;SDS011;29263;48.172;11.484;2022-11-21T17:18:41;5.27;;;1.00;;
43664;SDS011;29263;48.172;11.484;2022-11-21T17:21:09;6.17;;;1.53;;